Waterloo Regional Airport
KALO : now visible

Airfield :











YOU CAN JOIN US ON...

 
LOGIN :

Register | Disclaimer

   EN    FR    IT 

 









Legend :    VFR   Marginal VFR   IFR   Intensive IFR   Very Intensive IFR
Visi :
Ceiling :
>= 8 km
>= 3000ft
5 to 8 km
1000 to 3000 ft
1500m to 5 km
500 to 1000 ft
800 to 1500m
200 to 500 ft
< 800m
< 200 ft
Symbols :   Thunderstorms  Fog  Heavy snow  Heavy precipitations  Wind > 20 kt






- Airport Elevation : 873 ft
- IATA code : ALO


KALO - Waterloo Regional

CURRENT METAR :
  • 172154Z 19004KT 10SM OVC021 M03/M07 A2990 RMK AO2 SLP137 T10281072 $

EXPIRED METARs :
  • 172054Z 00000KT 10SM OVC022 M02/M07 A2991 RMK AO2 SLP138 T10221072 58008 $
  • 171954Z 29006KT 10SM OVC022 M03/M08 A2991 RMK AO2 SLP140 T10331083 $

TAF KALO
Valid from the 17 at 20:00 until the 18 at 18:00 UTC


172028Z 1720/1818 28007KT P6SM OVC022
FM172300 23004KT P6SM BKN120
FM180100 17004KT P6SM BKN045
FM180800 15006KT 4SM BR BKN008
FM181000 14006KT 3SM BR BKN003
FM181700 18009KT 5SM BR BKN005
KZAU FIR / North America



MET'MAP, your aeronautical weather chart ! - Copyright ORBIFLY December 2007 - Disclaimer

ORBIFLY MET'MAP TEAM :

Programming & Development : Alexandra Zaïnal
Concept & original design : Baudouin d'Aumeries
Assistance for programming : Marc-Olivier Méhu
Technical & hardware support : Manuel Goepfert

Contact : metmap@orbifly.com




SOURCES & CREDITS :

   NOAA       Earth
Advisory